sensor_id;sensor_type;location;lat;lon;timestamp;temperature;humidity
10417;DHT22;62605;49.432;8.680;2024-01-30T00:02:22;3.30;99.90
10417;DHT22;62605;49.432;8.680;2024-01-30T00:04:50;3.30;99.90
10417;DHT22;62605;49.432;8.680;2024-01-30T00:07:18;3.20;99.90
10417;DHT22;62605;49.432;8.680;2024-01-30T00:09:46;3.20;99.90
10417;DHT22;62605;49.432;8.680;2024-01-30T00:12:14;3.10;99.90
10417;DHT22;62605;49.432;8.680;2024-01-30T00:14:42;3.10;99.90
10417;DHT22;62605;49.432;8.680;2024-01-30T00:17:10;3.20;99.90
10417;DHT22;62605;49.432;8.680;2024-01-30T00:19:39;3.10;99.90
10417;DHT22;62605;49.432;8.680;2024-01-30T00:22:08;3.10;99.90
10417;DHT22;62605;49.432;8.680;2024-01-30T00:24:36;3.10;99.90
10417;DHT22;62605;49.432;8.680;2024-01-30T00:27:03;3.00;99.90
10417;DHT22;62605;49.432;8.680;2024-01-30T00:29:31;3.00;99.90
10417;DHT22;62605;49.432;8.680;2024-01-30T00:31:59;3.00;99.90
10417;DHT22;62605;49.432;8.680;2024-01-30T00:34:27;3.10;99.90
10417;DHT22;62605;49.432;8.680;2024-01-30T00:36:55;3.00;99.90
10417;DHT22;62605;49.432;8.680;2024-01-30T00:39:24;3.10;99.90
10417;DHT22;62605;49.432;8.680;2024-01-30T00:41:51;3.00;99.90
10417;DHT22;62605;49.432;8.680;2024-01-30T00:44:19;3.00;99.90
10417;DHT22;62605;49.432;8.680;2024-01-30T00:46:47;3.00;99.90
10417;DHT22;62605;49.432;8.680;2024-01-30T00:49:16;3.00;99.90
10417;DHT22;62605;49.432;8.680;2024-01-30T00:51:46;3.00;99.90
10417;DHT22;62605;49.432;8.680;2024-01-30T00:54:14;3.00;99.90
10417;DHT22;62605;49.432;8.680;2024-01-30T00:56:43;3.00;99.90
10417;DHT22;62605;49.432;8.680;2024-01-30T00:59:11;3.20;99.90
10417;DHT22;62605;49.432;8.680;2024-01-30T01:01:38;3.10;99.90
10417;DHT22;62605;49.432;8.680;2024-01-30T01:04:06;3.10;99.90
10417;DHT22;62605;49.432;8.680;2024-01-30T01:06:34;3.00;99.90
10417;DHT22;62605;49.432;8.680;2024-01-30T01:09:03;3.00;99.90
10417;DHT22;62605;49.432;8.680;2024-01-30T01:11:31;3.10;99.90
10417;DHT22;62605;49.432;8.680;2024-01-30T01:14:00;3.10;99.90
10417;DHT22;62605;49.432;8.680;2024-01-30T01:16:27;3.10;99.90
10417;DHT22;62605;49.432;8.680;2024-01-30T01:18:55;3.10;99.90
10417;DHT22;62605;49.432;8.680;2024-01-30T01:21:23;3.10;99.90
10417;DHT22;62605;49.432;8.680;2024-01-30T01:23:50;3.10;99.90
10417;DHT22;62605;49.432;8.680;2024-01-30T01:26:17;3.10;99.90
10417;DHT22;62605;49.432;8.680;2024-01-30T01:28:44;3.10;99.90
10417;DHT22;62605;49.432;8.680;2024-01-30T01:31:14;3.10;99.90
10417;DHT22;62605;49.432;8.680;2024-01-30T01:33:43;3.00;99.90
10417;DHT22;62605;49.432;8.680;2024-01-30T01:36:11;3.10;99.90
10417;DHT22;62605;49.432;8.680;2024-01-30T01:38:41;3.00;99.90
10417;DHT22;62605;49.432;8.680;2024-01-30T01:41:10;3.00;99.90
10417;DHT22;62605;49.432;8.680;2024-01-30T01:43:39;3.10;99.90
10417;DHT22;62605;49.432;8.680;2024-01-30T01:46:09;3.10;99.90
10417;DHT22;62605;49.432;8.680;2024-01-30T01:48:38;3.10;99.90
10417;DHT22;62605;49.432;8.680;2024-01-30T01:51:07;3.10;99.90
10417;DHT22;62605;49.432;8.680;2024-01-30T01:53:35;3.10;99.90
10417;DHT22;62605;49.432;8.680;2024-01-30T01:56:04;3.00;99.90
10417;DHT22;62605;49.432;8.680;2024-01-30T01:58:33;3.00;99.90
10417;DHT22;62605;49.432;8.680;2024-01-30T02:01:02;3.00;99.90
10417;DHT22;62605;49.432;8.680;2024-01-30T02:03:32;2.90;99.90
10417;DHT22;62605;49.432;8.680;2024-01-30T02:06:02;2.90;99.90
10417;DHT22;62605;49.432;8.680;2024-01-30T02:08:31;2.80;99.90
10417;DHT22;62605;49.432;8.680;2024-01-30T02:10:59;2.90;99.90
10417;DHT22;62605;49.432;8.680;2024-01-30T02:13:27;2.90;99.90
10417;DHT22;62605;49.432;8.680;2024-01-30T02:15:56;3.00;99.90
10417;DHT22;62605;49.432;8.680;2024-01-30T02:18:23;3.10;99.90
10417;DHT22;62605;49.432;8.680;2024-01-30T02:20:53;3.20;99.90
10417;DHT22;62605;49.432;8.680;2024-01-30T02:23:24;3.20;99.90
10417;DHT22;62605;49.432;8.680;2024-01-30T02:25:51;3.30;99.90
10417;DHT22;62605;49.432;8.680;2024-01-30T02:28:19;3.30;99.90
10417;DHT22;62605;49.432;8.680;2024-01-30T02:30:46;3.20;99.90
10417;DHT22;62605;49.432;8.680;2024-01-30T02:33:14;3.10;99.90
10417;DHT22;62605;49.432;8.680;2024-01-30T02:35:41;3.00;99.90
10417;DHT22;62605;49.432;8.680;2024-01-30T02:38:09;3.00;99.90
10417;DHT22;62605;49.432;8.680;2024-01-30T02:40:37;3.00;99.90
10417;DHT22;62605;49.432;8.680;2024-01-30T02:43:05;2.90;99.90
10417;DHT22;62605;49.432;8.680;2024-01-30T02:45:32;3.00;99.90
10417;DHT22;62605;49.432;8.680;2024-01-30T02:48:00;2.90;99.90
10417;DHT22;62605;49.432;8.680;2024-01-30T02:50:27;2.90;99.90
10417;DHT22;62605;49.432;8.680;2024-01-30T02:52:54;2.90;99.90
10417;DHT22;62605;49.432;8.680;2024-01-30T02:55:21;3.10;99.90
10417;DHT22;62605;49.432;8.680;2024-01-30T02:57:50;3.30;99.90
10417;DHT22;62605;49.432;8.680;2024-01-30T03:00:20;3.40;99.90
10417;DHT22;62605;49.432;8.680;2024-01-30T03:02:47;3.50;99.90
10417;DHT22;62605;49.432;8.680;2024-01-30T03:05:14;3.50;99.90
10417;DHT22;62605;49.432;8.680;2024-01-30T03:07:42;3.50;99.90
10417;DHT22;62605;49.432;8.680;2024-01-30T03:10:09;3.60;99.90
10417;DHT22;62605;49.432;8.680;2024-01-30T03:12:36;3.70;99.90
10417;DHT22;62605;49.432;8.680;2024-01-30T03:15:06;3.60;99.90
10417;DHT22;62605;49.432;8.680;2024-01-30T03:17:35;3.70;99.90
10417;DHT22;62605;49.432;8.680;2024-01-30T03:20:04;3.80;99.90
10417;DHT22;62605;49.432;8.680;2024-01-30T03:22:32;3.70;99.90
10417;DHT22;62605;49.432;8.680;2024-01-30T03:24:59;3.90;99.90
10417;DHT22;62605;49.432;8.680;2024-01-30T03:27:27;3.90;99.90
10417;DHT22;62605;49.432;8.680;2024-01-30T03:29:54;4.10;99.90
10417;DHT22;62605;49.432;8.680;2024-01-30T03:32:23;4.10;99.90
10417;DHT22;62605;49.432;8.680;2024-01-30T03:34:50;4.20;99.90
10417;DHT22;62605;49.432;8.680;2024-01-30T03:37:18;4.30;99.90
10417;DHT22;62605;49.432;8.680;2024-01-30T03:39:45;4.40;99.90
10417;DHT22;62605;49.432;8.680;2024-01-30T03:42:12;4.40;99.90
10417;DHT22;62605;49.432;8.680;2024-01-30T03:44:39;4.50;99.90
10417;DHT22;62605;49.432;8.680;2024-01-30T03:47:06;4.50;99.90
10417;DHT22;62605;49.432;8.680;2024-01-30T03:49:35;4.60;99.90
10417;DHT22;62605;49.432;8.680;2024-01-30T03:52:03;4.50;99.90
10417;DHT22;62605;49.432;8.680;2024-01-30T03:54:30;4.50;99.90
10417;DHT22;62605;49.432;8.680;2024-01-30T03:56:57;4.40;99.90
10417;DHT22;62605;49.432;8.680;2024-01-30T03:59:25;4.50;99.90
10417;DHT22;62605;49.432;8.680;2024-01-30T04:01:52;4.60;99.90
10417;DHT22;62605;49.432;8.680;2024-01-30T04:04:20;4.60;99.90
10417;DHT22;62605;49.432;8.680;2024-01-30T04:06:48;4.70;99.90
10417;DHT22;62605;49.432;8.680;2024-01-30T04:09:16;4.80;99.90
10417;DHT22;62605;49.432;8.680;2024-01-30T04:11:44;5.00;99.90
10417;DHT22;62605;49.432;8.680;2024-01-30T04:14:11;5.20;99.90
10417;DHT22;62605;49.432;8.680;2024-01-30T04:16:39;5.10;99.90
10417;DHT22;62605;49.432;8.680;2024-01-30T04:19:06;5.00;99.90
10417;DHT22;62605;49.432;8.680;2024-01-30T04:21:33;4.90;99.90
10417;DHT22;62605;49.432;8.680;2024-01-30T04:24:02;5.00;99.90
10417;DHT22;62605;49.432;8.680;2024-01-30T04:26:29;5.10;99.90
10417;DHT22;62605;49.432;8.680;2024-01-30T04:28:57;5.00;99.90
10417;DHT22;62605;49.432;8.680;2024-01-30T04:31:24;4.90;99.90
10417;DHT22;62605;49.432;8.680;2024-01-30T04:33:51;5.00;99.90
10417;DHT22;62605;49.432;8.680;2024-01-30T04:36:19;4.80;99.90
10417;DHT22;62605;49.432;8.680;2024-01-30T04:38:47;4.80;99.90
10417;DHT22;62605;49.432;8.680;2024-01-30T04:41:15;5.00;99.90
10417;DHT22;62605;49.432;8.680;2024-01-30T04:43:43;4.90;99.90
10417;DHT22;62605;49.432;8.680;2024-01-30T04:46:10;4.90;99.90
10417;DHT22;62605;49.432;8.680;2024-01-30T04:48:37;4.80;99.90
10417;DHT22;62605;49.432;8.680;2024-01-30T04:51:05;4.90;99.90
10417;DHT22;62605;49.432;8.680;2024-01-30T04:53:32;4.90;99.90
10417;DHT22;62605;49.432;8.680;2024-01-30T04:55:59;4.90;99.90
10417;DHT22;62605;49.432;8.680;2024-01-30T04:58:28;4.80;99.90
10417;DHT22;62605;49.432;8.680;2024-01-30T05:00:55;4.70;99.90
10417;DHT22;62605;49.432;8.680;2024-01-30T05:03:23;4.70;99.90
10417;DHT22;62605;49.432;8.680;2024-01-30T05:05:51;4.70;99.90
10417;DHT22;62605;49.432;8.680;2024-01-30T05:08:18;4.60;99.90
10417;DHT22;62605;49.432;8.680;2024-01-30T05:10:45;4.60;99.90
10417;DHT22;62605;49.432;8.680;2024-01-30T05:13:12;4.70;99.90
10417;DHT22;62605;49.432;8.680;2024-01-30T05:15:42;4.60;99.90
10417;DHT22;62605;49.432;8.680;2024-01-30T05:18:09;4.70;99.90
10417;DHT22;62605;49.432;8.680;2024-01-30T05:20:36;4.70;99.90
10417;DHT22;62605;49.432;8.680;2024-01-30T05:23:04;4.60;99.90
10417;DHT22;62605;49.432;8.680;2024-01-30T05:25:31;4.60;99.90
10417;DHT22;62605;49.432;8.680;2024-01-30T05:27:58;4.70;99.90
10417;DHT22;62605;49.432;8.680;2024-01-30T05:30:25;4.70;99.90
10417;DHT22;62605;49.432;8.680;2024-01-30T05:32:54;4.70;99.90
10417;DHT22;62605;49.432;8.680;2024-01-30T05:35:21;4.70;99.90
10417;DHT22;62605;49.432;8.680;2024-01-30T05:37:48;4.70;99.90
10417;DHT22;62605;49.432;8.680;2024-01-30T05:40:16;4.70;99.90
10417;DHT22;62605;49.432;8.680;2024-01-30T05:42:43;4.60;99.90
10417;DHT22;62605;49.432;8.680;2024-01-30T05:45:11;4.80;99.90
10417;DHT22;62605;49.432;8.680;2024-01-30T05:47:38;4.80;99.90
10417;DHT22;62605;49.432;8.680;2024-01-30T05:50:08;4.90;99.90
10417;DHT22;62605;49.432;8.680;2024-01-30T05:52:36;4.80;99.90
10417;DHT22;62605;49.432;8.680;2024-01-30T05:55:03;4.70;99.90
10417;DHT22;62605;49.432;8.680;2024-01-30T05:57:31;4.80;99.90
10417;DHT22;62605;49.432;8.680;2024-01-30T05:59:58;4.70;99.90
10417;DHT22;62605;49.432;8.680;2024-01-30T06:02:25;4.80;99.90
10417;DHT22;62605;49.432;8.680;2024-01-30T06:04:53;4.80;99.90
10417;DHT22;62605;49.432;8.680;2024-01-30T06:07:22;5.00;99.90
10417;DHT22;62605;49.432;8.680;2024-01-30T06:09:49;4.90;99.90
10417;DHT22;62605;49.432;8.680;2024-01-30T06:12:17;5.00;99.90
10417;DHT22;62605;49.432;8.680;2024-01-30T06:14:45;4.90;99.90
10417;DHT22;62605;49.432;8.680;2024-01-30T06:17:12;5.00;99.90
10417;DHT22;62605;49.432;8.680;2024-01-30T06:19:39;4.90;99.90
10417;DHT22;62605;49.432;8.680;2024-01-30T06:22:07;4.80;99.90
10417;DHT22;62605;49.432;8.680;2024-01-30T06:24:36;4.70;99.90
10417;DHT22;62605;49.432;8.680;2024-01-30T06:27:04;4.70;99.90
10417;DHT22;62605;49.432;8.680;2024-01-30T06:29:31;4.60;99.90
10417;DHT22;62605;49.432;8.680;2024-01-30T06:31:59;4.60;99.90
10417;DHT22;62605;49.432;8.680;2024-01-30T06:34:26;4.50;99.90
10417;DHT22;62605;49.432;8.680;2024-01-30T06:36:53;4.50;99.90
10417;DHT22;62605;49.432;8.680;2024-01-30T06:39:22;4.50;99.90
10417;DHT22;62605;49.432;8.680;2024-01-30T06:41:51;4.50;99.90
10417;DHT22;62605;49.432;8.680;2024-01-30T06:44:18;4.50;99.90
10417;DHT22;62605;49.432;8.680;2024-01-30T06:46:46;4.40;99.90
10417;DHT22;62605;49.432;8.680;2024-01-30T06:49:14;4.40;99.90
10417;DHT22;62605;49.432;8.680;2024-01-30T06:51:43;4.40;99.90
10417;DHT22;62605;49.432;8.680;2024-01-30T06:54:11;4.50;99.90
10417;DHT22;62605;49.432;8.680;2024-01-30T06:56:39;4.50;99.90
10417;DHT22;62605;49.432;8.680;2024-01-30T06:59:08;4.60;99.90
10417;DHT22;62605;49.432;8.680;2024-01-30T07:01:35;4.60;99.90
10417;DHT22;62605;49.432;8.680;2024-01-30T07:04:03;4.60;99.90
10417;DHT22;62605;49.432;8.680;2024-01-30T07:06:30;4.70;99.90
10417;DHT22;62605;49.432;8.680;2024-01-30T07:08:58;4.80;99.90
10417;DHT22;62605;49.432;8.680;2024-01-30T07:11:25;4.80;99.90
10417;DHT22;62605;49.432;8.680;2024-01-30T07:13:54;4.80;99.90
10417;DHT22;62605;49.432;8.680;2024-01-30T07:16:23;4.90;99.90
10417;DHT22;62605;49.432;8.680;2024-01-30T07:18:50;4.90;99.90
10417;DHT22;62605;49.432;8.680;2024-01-30T07:21:17;4.90;99.90
10417;DHT22;62605;49.432;8.680;2024-01-30T07:23:47;4.90;99.90
10417;DHT22;62605;49.432;8.680;2024-01-30T07:26:15;4.90;99.90
10417;DHT22;62605;49.432;8.680;2024-01-30T07:28:42;4.80;99.90
10417;DHT22;62605;49.432;8.680;2024-01-30T07:31:10;4.90;99.90
10417;DHT22;62605;49.432;8.680;2024-01-30T07:33:38;4.90;99.90
10417;DHT22;62605;49.432;8.680;2024-01-30T07:36:06;5.10;99.90
10417;DHT22;62605;49.432;8.680;2024-01-30T07:38:34;5.10;99.90
10417;DHT22;62605;49.432;8.680;2024-01-30T07:41:02;5.20;99.90
10417;DHT22;62605;49.432;8.680;2024-01-30T07:43:29;5.30;99.90
10417;DHT22;62605;49.432;8.680;2024-01-30T07:45:56;5.30;99.90
10417;DHT22;62605;49.432;8.680;2024-01-30T07:48:24;5.30;99.90
10417;DHT22;62605;49.432;8.680;2024-01-30T07:50:53;5.30;99.90
10417;DHT22;62605;49.432;8.680;2024-01-30T07:53:20;5.40;99.90
10417;DHT22;62605;49.432;8.680;2024-01-30T07:58:40;5.50;99.90
10417;DHT22;62605;49.432;8.680;2024-01-30T08:01:09;5.60;99.90
10417;DHT22;62605;49.432;8.680;2024-01-30T08:03:38;5.60;99.90
10417;DHT22;62605;49.432;8.680;2024-01-30T08:06:09;5.60;99.90
10417;DHT22;62605;49.432;8.680;2024-01-30T08:08:37;5.70;99.90
10417;DHT22;62605;49.432;8.680;2024-01-30T08:11:04;5.80;99.90
10417;DHT22;62605;49.432;8.680;2024-01-30T08:13:32;5.80;99.90
10417;DHT22;62605;49.432;8.680;2024-01-30T08:15:59;6.00;99.90
10417;DHT22;62605;49.432;8.680;2024-01-30T08:18:26;6.10;99.90
10417;DHT22;62605;49.432;8.680;2024-01-30T08:20:53;6.20;99.90
10417;DHT22;62605;49.432;8.680;2024-01-30T08:23:22;6.30;99.90
10417;DHT22;62605;49.432;8.680;2024-01-30T08:25:49;6.40;99.90
10417;DHT22;62605;49.432;8.680;2024-01-30T08:28:17;6.50;99.90
10417;DHT22;62605;49.432;8.680;2024-01-30T08:30:44;6.60;99.90
10417;DHT22;62605;49.432;8.680;2024-01-30T08:33:11;6.60;99.90
10417;DHT22;62605;49.432;8.680;2024-01-30T08:35:39;6.70;99.90
10417;DHT22;62605;49.432;8.680;2024-01-30T08:38:06;6.70;99.90
10417;DHT22;62605;49.432;8.680;2024-01-30T08:40:35;6.80;99.90
10417;DHT22;62605;49.432;8.680;2024-01-30T08:43:02;6.90;99.90
10417;DHT22;62605;49.432;8.680;2024-01-30T08:45:30;7.10;99.90
10417;DHT22;62605;49.432;8.680;2024-01-30T08:47:57;7.10;99.90
10417;DHT22;62605;49.432;8.680;2024-01-30T08:50:24;7.30;99.90
10417;DHT22;62605;49.432;8.680;2024-01-30T08:52:52;7.40;99.90
10417;DHT22;62605;49.432;8.680;2024-01-30T08:55:19;7.50;99.90
10417;DHT22;62605;49.432;8.680;2024-01-30T08:57:49;7.60;99.90
10417;DHT22;62605;49.432;8.680;2024-01-30T09:00:18;7.60;99.90
10417;DHT22;62605;49.432;8.680;2024-01-30T09:02:46;7.90;99.90
10417;DHT22;62605;49.432;8.680;2024-01-30T09:05:13;7.90;99.90
10417;DHT22;62605;49.432;8.680;2024-01-30T09:07:40;8.00;99.90
10417;DHT22;62605;49.432;8.680;2024-01-30T09:10:08;8.20;99.90
10417;DHT22;62605;49.432;8.680;2024-01-30T09:12:35;8.20;99.90
10417;DHT22;62605;49.432;8.680;2024-01-30T09:15:04;8.20;99.90
10417;DHT22;62605;49.432;8.680;2024-01-30T09:17:32;8.20;99.90
10417;DHT22;62605;49.432;8.680;2024-01-30T09:20:00;8.20;99.90
10417;DHT22;62605;49.432;8.680;2024-01-30T09:22:28;8.30;99.90
10417;DHT22;62605;49.432;8.680;2024-01-30T09:24:55;8.30;99.90
10417;DHT22;62605;49.432;8.680;2024-01-30T09:27:22;8.20;99.90
10417;DHT22;62605;49.432;8.680;2024-01-30T09:29:49;8.20;99.90
10417;DHT22;62605;49.432;8.680;2024-01-30T09:32:18;8.20;99.90
10417;DHT22;62605;49.432;8.680;2024-01-30T09:34:45;8.30;99.90
10417;DHT22;62605;49.432;8.680;2024-01-30T09:37:13;8.40;99.90
10417;DHT22;62605;49.432;8.680;2024-01-30T09:39:41;8.40;99.90
10417;DHT22;62605;49.432;8.680;2024-01-30T09:42:14;8.40;99.90
10417;DHT22;62605;49.432;8.680;2024-01-30T09:44:44;8.40;99.90
10417;DHT22;62605;49.432;8.680;2024-01-30T09:47:13;8.40;99.90
10417;DHT22;62605;49.432;8.680;2024-01-30T09:49:43;8.40;99.90
10417;DHT22;62605;49.432;8.680;2024-01-30T09:52:11;8.30;99.90
10417;DHT22;62605;49.432;8.680;2024-01-30T09:54:38;8.40;99.90
10417;DHT22;62605;49.432;8.680;2024-01-30T09:57:07;8.40;99.90
10417;DHT22;62605;49.432;8.680;2024-01-30T09:59:35;8.40;99.90
10417;DHT22;62605;49.432;8.680;2024-01-30T10:02:02;8.50;99.90
10417;DHT22;62605;49.432;8.680;2024-01-30T10:04:30;8.60;99.90
10417;DHT22;62605;49.432;8.680;2024-01-30T10:07:01;8.60;99.90
10417;DHT22;62605;49.432;8.680;2024-01-30T10:09:32;8.60;99.90
10417;DHT22;62605;49.432;8.680;2024-01-30T10:12:00;8.60;99.90
10417;DHT22;62605;49.432;8.680;2024-01-30T10:14:29;8.60;99.90
10417;DHT22;62605;49.432;8.680;2024-01-30T10:16:57;8.70;99.90
10417;DHT22;62605;49.432;8.680;2024-01-30T10:19:25;8.80;99.90
10417;DHT22;62605;49.432;8.680;2024-01-30T10:21:53;8.80;99.90
10417;DHT22;62605;49.432;8.680;2024-01-30T10:24:25;8.80;99.90
10417;DHT22;62605;49.432;8.680;2024-01-30T10:26:55;9.00;99.90
10417;DHT22;62605;49.432;8.680;2024-01-30T10:29:22;8.90;99.90
10417;DHT22;62605;49.432;8.680;2024-01-30T10:31:58;9.00;99.90
10417;DHT22;62605;49.432;8.680;2024-01-30T10:34:26;9.00;99.90
10417;DHT22;62605;49.432;8.680;2024-01-30T10:37:00;9.10;99.90
10417;DHT22;62605;49.432;8.680;2024-01-30T10:39:36;9.10;99.90
10417;DHT22;62605;49.432;8.680;2024-01-30T10:42:06;9.30;99.90
10417;DHT22;62605;49.432;8.680;2024-01-30T10:44:37;9.20;99.90
10417;DHT22;62605;49.432;8.680;2024-01-30T10:47:13;9.30;99.90
10417;DHT22;62605;49.432;8.680;2024-01-30T10:49:44;9.30;99.90
10417;DHT22;62605;49.432;8.680;2024-01-30T10:52:13;9.30;99.90
10417;DHT22;62605;49.432;8.680;2024-01-30T10:54:45;9.50;99.90
10417;DHT22;62605;49.432;8.680;2024-01-30T10:57:14;9.40;99.90
10417;DHT22;62605;49.432;8.680;2024-01-30T10:59:43;9.50;99.90
10417;DHT22;62605;49.432;8.680;2024-01-30T11:02:13;9.30;99.90
10417;DHT22;62605;49.432;8.680;2024-01-30T11:04:42;9.50;99.90
10417;DHT22;62605;49.432;8.680;2024-01-30T11:07:16;9.60;99.90
10417;DHT22;62605;49.432;8.680;2024-01-30T11:10:01;9.60;99.90
10417;DHT22;62605;49.432;8.680;2024-01-30T11:12:30;9.40;99.90
10417;DHT22;62605;49.432;8.680;2024-01-30T11:15:04;9.50;99.90
10417;DHT22;62605;49.432;8.680;2024-01-30T11:17:49;9.50;99.90
10417;DHT22;62605;49.432;8.680;2024-01-30T11:20:21;9.60;99.90
10417;DHT22;62605;49.432;8.680;2024-01-30T11:22:51;9.60;99.90
10417;DHT22;62605;49.432;8.680;2024-01-30T11:25:21;9.50;99.90
10417;DHT22;62605;49.432;8.680;2024-01-30T11:27:50;9.60;99.90
10417;DHT22;62605;49.432;8.680;2024-01-30T11:30:22;9.60;99.90
10417;DHT22;62605;49.432;8.680;2024-01-30T11:33:04;9.70;99.90
10417;DHT22;62605;49.432;8.680;2024-01-30T11:35:32;9.60;99.90
10417;DHT22;62605;49.432;8.680;2024-01-30T11:38:14;9.50;99.90
10417;DHT22;62605;49.432;8.680;2024-01-30T11:40:45;9.60;99.90
10417;DHT22;62605;49.432;8.680;2024-01-30T11:43:13;9.60;99.90
10417;DHT22;62605;49.432;8.680;2024-01-30T11:45:54;9.60;99.90
10417;DHT22;62605;49.432;8.680;2024-01-30T11:48:23;9.60;99.90
10417;DHT22;62605;49.432;8.680;2024-01-30T11:50:50;9.50;99.90
10417;DHT22;62605;49.432;8.680;2024-01-30T11:53:18;9.50;99.90
10417;DHT22;62605;49.432;8.680;2024-01-30T11:55:51;9.50;99.90
10417;DHT22;62605;49.432;8.680;2024-01-30T11:58:18;9.60;99.90
10417;DHT22;62605;49.432;8.680;2024-01-30T12:00:53;9.60;99.90
10417;DHT22;62605;49.432;8.680;2024-01-30T12:03:21;9.60;99.90
10417;DHT22;62605;49.432;8.680;2024-01-30T12:05:55;9.70;99.90
10417;DHT22;62605;49.432;8.680;2024-01-30T12:08:22;9.80;99.90
10417;DHT22;62605;49.432;8.680;2024-01-30T12:10:56;9.80;99.90
10417;DHT22;62605;49.432;8.680;2024-01-30T12:13:25;9.70;99.90
10417;DHT22;62605;49.432;8.680;2024-01-30T12:15:52;9.90;99.90
10417;DHT22;62605;49.432;8.680;2024-01-30T12:18:19;10.00;99.90
10417;DHT22;62605;49.432;8.680;2024-01-30T12:20:57;9.80;99.90
10417;DHT22;62605;49.432;8.680;2024-01-30T12:23:24;9.80;99.90
10417;DHT22;62605;49.432;8.680;2024-01-30T12:25:52;9.90;99.90
10417;DHT22;62605;49.432;8.680;2024-01-30T12:28:21;10.00;99.90
10417;DHT22;62605;49.432;8.680;2024-01-30T12:30:48;10.10;99.90
10417;DHT22;62605;49.432;8.680;2024-01-30T12:33:16;10.10;99.90
10417;DHT22;62605;49.432;8.680;2024-01-30T12:35:46;10.10;99.90
10417;DHT22;62605;49.432;8.680;2024-01-30T12:38:13;10.10;99.90
10417;DHT22;62605;49.432;8.680;2024-01-30T12:40:41;10.30;99.90
10417;DHT22;62605;49.432;8.680;2024-01-30T12:43:08;10.40;99.90
10417;DHT22;62605;49.432;8.680;2024-01-30T12:45:37;10.40;99.90
10417;DHT22;62605;49.432;8.680;2024-01-30T12:48:05;10.40;99.90
10417;DHT22;62605;49.432;8.680;2024-01-30T12:50:32;10.50;99.90
10417;DHT22;62605;49.432;8.680;2024-01-30T12:52:59;10.50;99.90
10417;DHT22;62605;49.432;8.680;2024-01-30T12:55:27;10.70;99.90
10417;DHT22;62605;49.432;8.680;2024-01-30T12:57:54;10.60;99.90
10417;DHT22;62605;49.432;8.680;2024-01-30T13:00:21;10.60;99.90
10417;DHT22;62605;49.432;8.680;2024-01-30T13:02:50;10.80;99.90
10417;DHT22;62605;49.432;8.680;2024-01-30T13:05:17;10.80;99.90
10417;DHT22;62605;49.432;8.680;2024-01-30T13:07:44;11.00;99.90
10417;DHT22;62605;49.432;8.680;2024-01-30T13:10:11;11.10;99.90
10417;DHT22;62605;49.432;8.680;2024-01-30T13:12:38;11.20;99.90
10417;DHT22;62605;49.432;8.680;2024-01-30T13:15:06;11.10;99.90
10417;DHT22;62605;49.432;8.680;2024-01-30T13:17:34;11.10;99.90
10417;DHT22;62605;49.432;8.680;2024-01-30T13:20:03;11.10;99.90
10417;DHT22;62605;49.432;8.680;2024-01-30T13:22:30;11.10;99.90
10417;DHT22;62605;49.432;8.680;2024-01-30T13:25:08;11.10;99.90
10417;DHT22;62605;49.432;8.680;2024-01-30T13:27:36;11.00;99.90
10417;DHT22;62605;49.432;8.680;2024-01-30T13:30:04;11.00;99.90
10417;DHT22;62605;49.432;8.680;2024-01-30T13:32:31;11.00;99.90
10417;DHT22;62605;49.432;8.680;2024-01-30T13:34:58;11.00;99.90
10417;DHT22;62605;49.432;8.680;2024-01-30T13:37:27;11.00;99.90
10417;DHT22;62605;49.432;8.680;2024-01-30T13:39:58;10.90;99.90
10417;DHT22;62605;49.432;8.680;2024-01-30T13:42:25;10.90;99.90
10417;DHT22;62605;49.432;8.680;2024-01-30T13:44:53;11.00;99.90
10417;DHT22;62605;49.432;8.680;2024-01-30T13:47:20;11.00;99.90
10417;DHT22;62605;49.432;8.680;2024-01-30T13:49:47;11.00;99.90
10417;DHT22;62605;49.432;8.680;2024-01-30T13:52:14;11.00;99.90
10417;DHT22;62605;49.432;8.680;2024-01-30T13:54:42;11.00;99.90
10417;DHT22;62605;49.432;8.680;2024-01-30T13:57:09;11.00;99.90
10417;DHT22;62605;49.432;8.680;2024-01-30T13:59:38;11.00;99.90
10417;DHT22;62605;49.432;8.680;2024-01-30T14:02:05;11.00;99.90
10417;DHT22;62605;49.432;8.680;2024-01-30T14:04:34;11.10;99.90
10417;DHT22;62605;49.432;8.680;2024-01-30T14:07:02;11.10;99.90
10417;DHT22;62605;49.432;8.680;2024-01-30T14:09:30;11.10;99.90
10417;DHT22;62605;49.432;8.680;2024-01-30T14:11:59;11.10;99.90
10417;DHT22;62605;49.432;8.680;2024-01-30T14:14:27;11.10;99.90
10417;DHT22;62605;49.432;8.680;2024-01-30T14:16:54;11.10;99.90
10417;DHT22;62605;49.432;8.680;2024-01-30T14:19:24;11.00;99.90
10417;DHT22;62605;49.432;8.680;2024-01-30T14:21:51;11.10;99.90
10417;DHT22;62605;49.432;8.680;2024-01-30T14:24:18;11.10;99.90
10417;DHT22;62605;49.432;8.680;2024-01-30T14:26:45;11.00;99.90
10417;DHT22;62605;49.432;8.680;2024-01-30T14:29:14;11.00;99.90
10417;DHT22;62605;49.432;8.680;2024-01-30T14:31:41;11.00;99.90
10417;DHT22;62605;49.432;8.680;2024-01-30T14:34:08;11.00;99.90
10417;DHT22;62605;49.432;8.680;2024-01-30T14:36:36;11.00;99.90
10417;DHT22;62605;49.432;8.680;2024-01-30T14:39:03;11.00;99.90
10417;DHT22;62605;49.432;8.680;2024-01-30T14:41:31;11.00;99.90
10417;DHT22;62605;49.432;8.680;2024-01-30T14:43:58;10.90;99.90
10417;DHT22;62605;49.432;8.680;2024-01-30T14:46:29;10.90;99.90
10417;DHT22;62605;49.432;8.680;2024-01-30T14:48:58;10.90;99.90
10417;DHT22;62605;49.432;8.680;2024-01-30T14:51:38;10.90;99.90
10417;DHT22;62605;49.432;8.680;2024-01-30T14:54:06;10.80;99.90
10417;DHT22;62605;49.432;8.680;2024-01-30T15:12:04;10.70;99.90
10417;DHT22;62605;49.432;8.680;2024-01-30T15:15:01;10.70;99.90
10417;DHT22;62605;49.432;8.680;2024-01-30T15:17:34;10.60;99.90
10417;DHT22;62605;49.432;8.680;2024-01-30T15:20:03;10.70;99.90
10417;DHT22;62605;49.432;8.680;2024-01-30T15:22:31;10.70;99.90
10417;DHT22;62605;49.432;8.680;2024-01-30T15:24:58;10.70;99.90
10417;DHT22;62605;49.432;8.680;2024-01-30T15:27:27;10.70;99.90
10417;DHT22;62605;49.432;8.680;2024-01-30T15:29:54;10.60;99.90
10417;DHT22;62605;49.432;8.680;2024-01-30T15:32:21;10.60;99.90
10417;DHT22;62605;49.432;8.680;2024-01-30T15:34:48;10.70;99.90
10417;DHT22;62605;49.432;8.680;2024-01-30T15:37:15;10.60;99.90
10417;DHT22;62605;49.432;8.680;2024-01-30T15:39:42;10.50;99.90
10417;DHT22;62605;49.432;8.680;2024-01-30T15:42:12;10.50;99.90
10417;DHT22;62605;49.432;8.680;2024-01-30T15:44:41;10.50;99.90
10417;DHT22;62605;49.432;8.680;2024-01-30T15:47:08;10.50;99.90
10417;DHT22;62605;49.432;8.680;2024-01-30T15:49:35;10.60;99.90
10417;DHT22;62605;49.432;8.680;2024-01-30T15:52:02;10.60;99.90
10417;DHT22;62605;49.432;8.680;2024-01-30T15:54:29;10.60;99.90
10417;DHT22;62605;49.432;8.680;2024-01-30T15:56:57;10.40;99.90
10417;DHT22;62605;49.432;8.680;2024-01-30T15:59:24;10.40;99.90
10417;DHT22;62605;49.432;8.680;2024-01-30T16:01:54;10.40;99.90
10417;DHT22;62605;49.432;8.680;2024-01-30T16:04:21;10.20;99.90
10417;DHT22;62605;49.432;8.680;2024-01-30T16:06:49;10.20;99.90
10417;DHT22;62605;49.432;8.680;2024-01-30T16:09:16;10.20;99.90